sensor_id;sensor_type;location;lat;lon;timestamp;P1;durP1;ratioP1;P2;durP2;ratioP2
62832;SDS011;48891;49.220;6.920;2023-06-19T00:01:11;9.30;;;7.43;;
62832;SDS011;48891;49.220;6.920;2023-06-19T00:03:37;9.35;;;7.18;;
62832;SDS011;48891;49.220;6.920;2023-06-19T00:06:02;9.63;;;7.40;;
62832;SDS011;48891;49.220;6.920;2023-06-19T00:08:27;9.00;;;7.53;;
62832;SDS011;48891;49.220;6.920;2023-06-19T00:10:52;9.32;;;7.80;;
62832;SDS011;48891;49.220;6.920;2023-06-19T00:13:17;10.25;;;7.53;;
62832;SDS011;48891;49.220;6.920;2023-06-19T00:15:42;7.97;;;7.07;;
62832;SDS011;48891;49.220;6.920;2023-06-19T00:18:07;8.95;;;7.57;;
62832;SDS011;48891;49.220;6.920;2023-06-19T00:20:32;10.07;;;7.45;;
62832;SDS011;48891;49.220;6.920;2023-06-19T00:22:57;8.27;;;7.03;;
62832;SDS011;48891;49.220;6.920;2023-06-19T00:25:23;8.40;;;7.15;;
62832;SDS011;48891;49.220;6.920;2023-06-19T00:27:48;10.88;;;7.63;;
62832;SDS011;48891;49.220;6.920;2023-06-19T00:30:13;8.93;;;7.30;;
62832;SDS011;48891;49.220;6.920;2023-06-19T00:32:38;8.80;;;7.43;;
62832;SDS011;48891;49.220;6.920;2023-06-19T00:35:03;8.35;;;7.10;;
62832;SDS011;48891;49.220;6.920;2023-06-19T00:37:28;9.27;;;7.07;;
62832;SDS011;48891;49.220;6.920;2023-06-19T00:39:53;8.60;;;7.20;;
62832;SDS011;48891;49.220;6.920;2023-06-19T00:42:19;7.53;;;6.72;;
62832;SDS011;48891;49.220;6.920;2023-06-19T00:44:44;9.15;;;8.00;;
62832;SDS011;48891;49.220;6.920;2023-06-19T00:47:09;8.55;;;7.65;;
62832;SDS011;48891;49.220;6.920;2023-06-19T00:49:34;9.52;;;7.43;;
62832;SDS011;48891;49.220;6.920;2023-06-19T00:51:59;9.53;;;7.70;;
62832;SDS011;48891;49.220;6.920;2023-06-19T00:54:25;7.90;;;6.82;;
62832;SDS011;48891;49.220;6.920;2023-06-19T00:56:50;9.60;;;7.45;;
62832;SDS011;48891;49.220;6.920;2023-06-19T00:59:16;7.95;;;6.97;;
62832;SDS011;48891;49.220;6.920;2023-06-19T01:01:41;8.70;;;7.05;;
62832;SDS011;48891;49.220;6.920;2023-06-19T01:04:07;9.77;;;7.40;;
62832;SDS011;48891;49.220;6.920;2023-06-19T01:06:40;10.50;;;7.45;;
62832;SDS011;48891;49.220;6.920;2023-06-19T01:09:08;8.73;;;7.07;;
62832;SDS011;48891;49.220;6.920;2023-06-19T01:11:36;9.27;;;7.13;;
62832;SDS011;48891;49.220;6.920;2023-06-19T01:14:03;7.88;;;6.80;;
62832;SDS011;48891;49.220;6.920;2023-06-19T01:16:30;8.35;;;6.97;;
62832;SDS011;48891;49.220;6.920;2023-06-19T01:18:56;7.60;;;6.60;;
62832;SDS011;48891;49.220;6.920;2023-06-19T01:21:21;8.10;;;6.60;;
62832;SDS011;48891;49.220;6.920;2023-06-19T01:23:46;9.50;;;6.82;;
62832;SDS011;48891;49.220;6.920;2023-06-19T01:26:11;9.32;;;6.45;;
62832;SDS011;48891;49.220;6.920;2023-06-19T01:28:37;8.27;;;6.33;;
62832;SDS011;48891;49.220;6.920;2023-06-19T01:31:03;8.00;;;6.45;;
62832;SDS011;48891;49.220;6.920;2023-06-19T01:35:56;9.75;;;6.80;;
62832;SDS011;48891;49.220;6.920;2023-06-19T01:38:22;9.73;;;7.00;;
62832;SDS011;48891;49.220;6.920;2023-06-19T01:40:48;8.60;;;6.60;;
62832;SDS011;48891;49.220;6.920;2023-06-19T01:43:13;8.07;;;6.30;;
62832;SDS011;48891;49.220;6.920;2023-06-19T01:45:39;7.53;;;6.18;;
62832;SDS011;48891;49.220;6.920;2023-06-19T01:48:04;7.25;;;6.07;;
62832;SDS011;48891;49.220;6.920;2023-06-19T01:50:30;8.30;;;5.93;;
62832;SDS011;48891;49.220;6.920;2023-06-19T01:52:55;7.43;;;5.83;;
62832;SDS011;48891;49.220;6.920;2023-06-19T01:55:20;7.75;;;6.32;;
62832;SDS011;48891;49.220;6.920;2023-06-19T01:57:45;7.77;;;6.23;;
62832;SDS011;48891;49.220;6.920;2023-06-19T02:00:10;7.60;;;6.40;;
62832;SDS011;48891;49.220;6.920;2023-06-19T02:02:36;7.07;;;5.90;;
62832;SDS011;48891;49.220;6.920;2023-06-19T02:05:01;7.95;;;6.28;;
62832;SDS011;48891;49.220;6.920;2023-06-19T02:07:26;7.50;;;5.38;;
62832;SDS011;48891;49.220;6.920;2023-06-19T02:09:51;8.18;;;5.53;;
62832;SDS011;48891;49.220;6.920;2023-06-19T02:12:16;7.05;;;5.80;;
62832;SDS011;48891;49.220;6.920;2023-06-19T02:14:41;7.57;;;5.70;;
62832;SDS011;48891;49.220;6.920;2023-06-19T02:17:06;7.78;;;5.88;;
62832;SDS011;48891;49.220;6.920;2023-06-19T02:19:32;8.13;;;5.23;;
62832;SDS011;48891;49.220;6.920;2023-06-19T02:21:57;6.70;;;5.63;;
62832;SDS011;48891;49.220;6.920;2023-06-19T02:24:22;7.20;;;5.80;;
62832;SDS011;48891;49.220;6.920;2023-06-19T02:26:47;9.38;;;5.53;;
62832;SDS011;48891;49.220;6.920;2023-06-19T02:29:12;7.78;;;5.72;;
62832;SDS011;48891;49.220;6.920;2023-06-19T02:31:37;7.40;;;5.63;;
62832;SDS011;48891;49.220;6.920;2023-06-19T02:34:03;6.88;;;5.47;;
62832;SDS011;48891;49.220;6.920;2023-06-19T02:36:28;7.30;;;5.57;;
62832;SDS011;48891;49.220;6.920;2023-06-19T02:38:53;7.45;;;5.68;;
62832;SDS011;48891;49.220;6.920;2023-06-19T02:41:18;8.05;;;5.60;;
62832;SDS011;48891;49.220;6.920;2023-06-19T02:43:43;7.55;;;5.47;;
62832;SDS011;48891;49.220;6.920;2023-06-19T02:46:09;7.32;;;6.15;;
62832;SDS011;48891;49.220;6.920;2023-06-19T02:48:34;7.45;;;5.80;;
62832;SDS011;48891;49.220;6.920;2023-06-19T02:50:59;6.95;;;5.30;;
62832;SDS011;48891;49.220;6.920;2023-06-19T02:53:24;7.10;;;5.50;;
62832;SDS011;48891;49.220;6.920;2023-06-19T02:55:50;6.35;;;4.70;;
62832;SDS011;48891;49.220;6.920;2023-06-19T02:58:15;6.82;;;5.13;;
62832;SDS011;48891;49.220;6.920;2023-06-19T03:00:40;7.13;;;5.30;;
62832;SDS011;48891;49.220;6.920;2023-06-19T03:03:05;6.78;;;5.25;;
62832;SDS011;48891;49.220;6.920;2023-06-19T03:05:30;7.60;;;5.55;;
62832;SDS011;48891;49.220;6.920;2023-06-19T03:07:55;8.55;;;5.25;;
62832;SDS011;48891;49.220;6.920;2023-06-19T03:10:20;6.35;;;5.10;;
62832;SDS011;48891;49.220;6.920;2023-06-19T03:12:45;6.93;;;5.25;;
62832;SDS011;48891;49.220;6.920;2023-06-19T03:15:10;6.43;;;5.15;;
62832;SDS011;48891;49.220;6.920;2023-06-19T03:17:36;10.73;;;5.40;;
62832;SDS011;48891;49.220;6.920;2023-06-19T03:20:01;7.37;;;5.87;;
62832;SDS011;48891;49.220;6.920;2023-06-19T03:22:26;6.88;;;5.28;;
62832;SDS011;48891;49.220;6.920;2023-06-19T03:24:51;6.80;;;5.35;;
62832;SDS011;48891;49.220;6.920;2023-06-19T03:27:16;7.95;;;5.47;;
62832;SDS011;48891;49.220;6.920;2023-06-19T03:29:41;7.43;;;5.18;;
62832;SDS011;48891;49.220;6.920;2023-06-19T03:32:06;8.43;;;5.38;;
62832;SDS011;48891;49.220;6.920;2023-06-19T03:34:31;6.33;;;4.77;;
62832;SDS011;48891;49.220;6.920;2023-06-19T03:36:57;6.97;;;5.22;;
62832;SDS011;48891;49.220;6.920;2023-06-19T03:39:22;7.13;;;5.28;;
62832;SDS011;48891;49.220;6.920;2023-06-19T03:41:47;7.57;;;5.43;;
62832;SDS011;48891;49.220;6.920;2023-06-19T03:44:12;6.70;;;5.28;;
62832;SDS011;48891;49.220;6.920;2023-06-19T03:46:37;6.50;;;5.28;;
62832;SDS011;48891;49.220;6.920;2023-06-19T03:49:02;6.65;;;5.13;;
62832;SDS011;48891;49.220;6.920;2023-06-19T03:51:27;7.68;;;5.18;;
62832;SDS011;48891;49.220;6.920;2023-06-19T03:53:52;6.18;;;4.80;;
62832;SDS011;48891;49.220;6.920;2023-06-19T03:56:18;6.47;;;4.97;;
62832;SDS011;48891;49.220;6.920;2023-06-19T03:58:43;7.70;;;5.50;;
62832;SDS011;48891;49.220;6.920;2023-06-19T04:01:08;6.65;;;5.22;;
62832;SDS011;48891;49.220;6.920;2023-06-19T04:03:33;7.90;;;5.60;;
62832;SDS011;48891;49.220;6.920;2023-06-19T04:05:58;6.28;;;4.93;;
62832;SDS011;48891;49.220;6.920;2023-06-19T04:08:23;5.90;;;4.97;;
62832;SDS011;48891;49.220;6.920;2023-06-19T04:10:48;7.32;;;5.25;;
62832;SDS011;48891;49.220;6.920;2023-06-19T04:13:13;6.63;;;4.90;;
62832;SDS011;48891;49.220;6.920;2023-06-19T04:15:38;7.75;;;5.53;;
62832;SDS011;48891;49.220;6.920;2023-06-19T04:18:04;6.93;;;4.82;;
62832;SDS011;48891;49.220;6.920;2023-06-19T04:20:29;6.80;;;5.50;;
62832;SDS011;48891;49.220;6.920;2023-06-19T04:22:54;6.17;;;4.80;;
62832;SDS011;48891;49.220;6.920;2023-06-19T04:25:19;7.50;;;5.00;;
62832;SDS011;48891;49.220;6.920;2023-06-19T04:27:44;7.50;;;5.07;;
62832;SDS011;48891;49.220;6.920;2023-06-19T04:30:09;6.72;;;5.25;;
62832;SDS011;48891;49.220;6.920;2023-06-19T04:32:35;6.55;;;5.25;;
62832;SDS011;48891;49.220;6.920;2023-06-19T04:35:00;7.22;;;5.03;;
62832;SDS011;48891;49.220;6.920;2023-06-19T04:37:25;6.87;;;5.37;;
62832;SDS011;48891;49.220;6.920;2023-06-19T04:39:50;7.25;;;5.30;;
62832;SDS011;48891;49.220;6.920;2023-06-19T04:42:16;6.45;;;5.00;;
62832;SDS011;48891;49.220;6.920;2023-06-19T04:44:42;6.13;;;4.88;;
62832;SDS011;48891;49.220;6.920;2023-06-19T04:47:07;7.00;;;5.43;;
62832;SDS011;48891;49.220;6.920;2023-06-19T04:49:32;8.32;;;5.63;;
62832;SDS011;48891;49.220;6.920;2023-06-19T04:51:57;6.05;;;4.95;;
62832;SDS011;48891;49.220;6.920;2023-06-19T04:54:23;6.72;;;5.00;;
62832;SDS011;48891;49.220;6.920;2023-06-19T04:56:48;7.07;;;5.13;;
62832;SDS011;48891;49.220;6.920;2023-06-19T04:59:13;8.00;;;5.43;;
62832;SDS011;48891;49.220;6.920;2023-06-19T05:01:38;6.80;;;5.07;;
62832;SDS011;48891;49.220;6.920;2023-06-19T05:04:03;8.25;;;5.60;;
62832;SDS011;48891;49.220;6.920;2023-06-19T05:06:28;6.97;;;5.35;;
62832;SDS011;48891;49.220;6.920;2023-06-19T05:08:53;6.75;;;5.28;;
62832;SDS011;48891;49.220;6.920;2023-06-19T05:11:18;6.57;;;5.05;;
62832;SDS011;48891;49.220;6.920;2023-06-19T05:13:44;7.45;;;5.13;;
62832;SDS011;48891;49.220;6.920;2023-06-19T05:16:09;6.33;;;4.83;;
62832;SDS011;48891;49.220;6.920;2023-06-19T05:18:34;6.57;;;4.95;;
62832;SDS011;48891;49.220;6.920;2023-06-19T05:20:59;8.27;;;4.97;;
62832;SDS011;48891;49.220;6.920;2023-06-19T05:23:24;6.35;;;5.00;;
62832;SDS011;48891;49.220;6.920;2023-06-19T05:25:49;6.72;;;4.88;;
62832;SDS011;48891;49.220;6.920;2023-06-19T05:28:15;6.65;;;5.13;;
62832;SDS011;48891;49.220;6.920;2023-06-19T05:30:40;6.60;;;5.18;;
62832;SDS011;48891;49.220;6.920;2023-06-19T05:33:05;8.63;;;5.43;;
62832;SDS011;48891;49.220;6.920;2023-06-19T05:35:30;7.18;;;5.40;;
62832;SDS011;48891;49.220;6.920;2023-06-19T05:37:55;6.57;;;5.28;;
62832;SDS011;48891;49.220;6.920;2023-06-19T05:40:20;5.77;;;4.77;;
62832;SDS011;48891;49.220;6.920;2023-06-19T05:42:45;5.63;;;4.57;;
62832;SDS011;48891;49.220;6.920;2023-06-19T05:45:10;8.00;;;5.43;;
62832;SDS011;48891;49.220;6.920;2023-06-19T05:47:36;8.00;;;5.20;;
62832;SDS011;48891;49.220;6.920;2023-06-19T05:50:01;5.85;;;4.93;;
62832;SDS011;48891;49.220;6.920;2023-06-19T05:52:26;7.07;;;4.83;;
62832;SDS011;48891;49.220;6.920;2023-06-19T05:54:51;6.47;;;5.03;;
62832;SDS011;48891;49.220;6.920;2023-06-19T05:57:16;7.63;;;4.70;;
62832;SDS011;48891;49.220;6.920;2023-06-19T05:59:41;7.32;;;4.75;;
62832;SDS011;48891;49.220;6.920;2023-06-19T06:02:07;6.78;;;4.88;;
62832;SDS011;48891;49.220;6.920;2023-06-19T06:04:32;6.03;;;4.63;;
62832;SDS011;48891;49.220;6.920;2023-06-19T06:06:57;6.00;;;4.28;;
62832;SDS011;48891;49.220;6.920;2023-06-19T06:09:22;6.00;;;4.63;;
62832;SDS011;48891;49.220;6.920;2023-06-19T06:11:47;7.18;;;5.15;;
62832;SDS011;48891;49.220;6.920;2023-06-19T06:14:12;5.97;;;4.63;;
62832;SDS011;48891;49.220;6.920;2023-06-19T06:16:37;6.13;;;4.32;;
62832;SDS011;48891;49.220;6.920;2023-06-19T06:19:02;6.68;;;4.75;;
62832;SDS011;48891;49.220;6.920;2023-06-19T06:21:28;6.05;;;4.60;;
62832;SDS011;48891;49.220;6.920;2023-06-19T06:23:53;6.45;;;4.20;;
62832;SDS011;48891;49.220;6.920;2023-06-19T06:26:18;5.40;;;4.13;;
62832;SDS011;48891;49.220;6.920;2023-06-19T06:28:43;6.32;;;4.60;;
62832;SDS011;48891;49.220;6.920;2023-06-19T06:31:08;5.72;;;4.28;;
62832;SDS011;48891;49.220;6.920;2023-06-19T06:33:33;7.07;;;4.93;;
62832;SDS011;48891;49.220;6.920;2023-06-19T06:35:59;6.03;;;4.20;;
62832;SDS011;48891;49.220;6.920;2023-06-19T06:38:24;5.40;;;4.20;;
62832;SDS011;48891;49.220;6.920;2023-06-19T06:40:49;4.97;;;4.30;;
62832;SDS011;48891;49.220;6.920;2023-06-19T06:43:14;7.00;;;4.20;;
62832;SDS011;48891;49.220;6.920;2023-06-19T06:45:39;6.25;;;4.47;;
62832;SDS011;48891;49.220;6.920;2023-06-19T06:48:05;6.78;;;4.07;;
62832;SDS011;48891;49.220;6.920;2023-06-19T06:50:31;6.18;;;4.43;;
62832;SDS011;48891;49.220;6.920;2023-06-19T06:52:56;6.05;;;4.20;;
62832;SDS011;48891;49.220;6.920;2023-06-19T06:55:21;5.78;;;4.10;;
62832;SDS011;48891;49.220;6.920;2023-06-19T06:57:46;6.18;;;4.10;;
62832;SDS011;48891;49.220;6.920;2023-06-19T07:00:11;6.53;;;4.38;;
62832;SDS011;48891;49.220;6.920;2023-06-19T07:02:37;5.40;;;4.25;;
62832;SDS011;48891;49.220;6.920;2023-06-19T07:05:02;5.60;;;4.35;;
62832;SDS011;48891;49.220;6.920;2023-06-19T07:07:27;5.50;;;3.87;;
62832;SDS011;48891;49.220;6.920;2023-06-19T07:09:52;5.65;;;3.90;;
62832;SDS011;48891;49.220;6.920;2023-06-19T07:12:18;4.93;;;3.90;;
62832;SDS011;48891;49.220;6.920;2023-06-19T07:14:43;5.03;;;4.05;;
62832;SDS011;48891;49.220;6.920;2023-06-19T07:17:08;5.47;;;4.55;;
62832;SDS011;48891;49.220;6.920;2023-06-19T07:19:33;6.00;;;3.80;;
62832;SDS011;48891;49.220;6.920;2023-06-19T07:21:58;6.30;;;4.38;;
62832;SDS011;48891;49.220;6.920;2023-06-19T07:24:24;5.13;;;4.03;;
62832;SDS011;48891;49.220;6.920;2023-06-19T07:26:49;5.17;;;4.23;;
62832;SDS011;48891;49.220;6.920;2023-06-19T07:29:14;5.18;;;4.00;;
62832;SDS011;48891;49.220;6.920;2023-06-19T07:31:39;5.80;;;4.03;;
62832;SDS011;48891;49.220;6.920;2023-06-19T07:34:04;6.10;;;3.75;;
62832;SDS011;48891;49.220;6.920;2023-06-19T07:36:29;4.78;;;3.45;;
62832;SDS011;48891;49.220;6.920;2023-06-19T07:38:54;5.00;;;3.58;;
62832;SDS011;48891;49.220;6.920;2023-06-19T07:41:20;5.90;;;4.03;;
62832;SDS011;48891;49.220;6.920;2023-06-19T07:43:45;5.35;;;4.00;;
62832;SDS011;48891;49.220;6.920;2023-06-19T07:46:10;5.05;;;3.50;;
62832;SDS011;48891;49.220;6.920;2023-06-19T07:48:35;5.20;;;3.60;;
62832;SDS011;48891;49.220;6.920;2023-06-19T07:51:00;5.63;;;3.95;;
62832;SDS011;48891;49.220;6.920;2023-06-19T07:53:25;4.80;;;3.50;;
62832;SDS011;48891;49.220;6.920;2023-06-19T07:55:50;6.47;;;3.90;;
62832;SDS011;48891;49.220;6.920;2023-06-19T07:58:15;4.90;;;3.40;;
62832;SDS011;48891;49.220;6.920;2023-06-19T08:00:40;5.57;;;3.47;;
62832;SDS011;48891;49.220;6.920;2023-06-19T08:03:06;5.15;;;3.47;;
62832;SDS011;48891;49.220;6.920;2023-06-19T08:05:31;5.00;;;3.30;;
62832;SDS011;48891;49.220;6.920;2023-06-19T08:07:56;4.88;;;3.50;;
62832;SDS011;48891;49.220;6.920;2023-06-19T08:10:21;3.95;;;3.05;;
62832;SDS011;48891;49.220;6.920;2023-06-19T08:12:46;4.38;;;3.30;;
62832;SDS011;48891;49.220;6.920;2023-06-19T08:15:12;5.32;;;3.55;;
62832;SDS011;48891;49.220;6.920;2023-06-19T08:17:37;5.07;;;3.80;;
62832;SDS011;48891;49.220;6.920;2023-06-19T08:20:02;4.32;;;3.08;;
62832;SDS011;48891;49.220;6.920;2023-06-19T08:22:27;4.88;;;3.10;;
62832;SDS011;48891;49.220;6.920;2023-06-19T08:24:52;4.78;;;3.45;;
62832;SDS011;48891;49.220;6.920;2023-06-19T08:27:17;5.07;;;3.42;;
62832;SDS011;48891;49.220;6.920;2023-06-19T08:29:43;4.30;;;3.03;;
62832;SDS011;48891;49.220;6.920;2023-06-19T08:32:08;4.32;;;3.38;;
62832;SDS011;48891;49.220;6.920;2023-06-19T08:34:33;4.40;;;3.22;;
62832;SDS011;48891;49.220;6.920;2023-06-19T08:36:58;4.88;;;3.40;;
62832;SDS011;48891;49.220;6.920;2023-06-19T08:39:23;5.15;;;3.40;;
62832;SDS011;48891;49.220;6.920;2023-06-19T08:41:48;4.60;;;3.28;;
62832;SDS011;48891;49.220;6.920;2023-06-19T08:44:13;4.40;;;3.30;;
62832;SDS011;48891;49.220;6.920;2023-06-19T08:46:38;4.97;;;3.10;;
62832;SDS011;48891;49.220;6.920;2023-06-19T08:49:03;4.75;;;3.63;;
62832;SDS011;48891;49.220;6.920;2023-06-19T08:51:29;4.70;;;3.40;;
62832;SDS011;48891;49.220;6.920;2023-06-19T08:53:55;3.77;;;2.90;;
62832;SDS011;48891;49.220;6.920;2023-06-19T08:56:20;4.35;;;3.20;;
62832;SDS011;48891;49.220;6.920;2023-06-19T08:58:45;5.82;;;3.38;;
62832;SDS011;48891;49.220;6.920;2023-06-19T09:01:10;4.57;;;3.25;;
62832;SDS011;48891;49.220;6.920;2023-06-19T09:03:36;5.43;;;3.40;;
62832;SDS011;48891;49.220;6.920;2023-06-19T09:06:04;4.78;;;2.90;;
62832;SDS011;48891;49.220;6.920;2023-06-19T09:08:31;3.85;;;2.97;;
62832;SDS011;48891;49.220;6.920;2023-06-19T09:15:56;5.55;;;3.53;;
62832;SDS011;48891;49.220;6.920;2023-06-19T09:18:21;4.40;;;3.20;;
62832;SDS011;48891;49.220;6.920;2023-06-19T09:20:47;3.88;;;2.97;;
62832;SDS011;48891;49.220;6.920;2023-06-19T09:23:12;4.75;;;3.22;;
62832;SDS011;48891;49.220;6.920;2023-06-19T09:25:44;4.18;;;3.10;;
62832;SDS011;48891;49.220;6.920;2023-06-19T09:28:16;5.00;;;3.78;;
62832;SDS011;48891;49.220;6.920;2023-06-19T09:30:50;4.47;;;3.03;;
62832;SDS011;48891;49.220;6.920;2023-06-19T09:33:15;4.88;;;3.08;;
62832;SDS011;48891;49.220;6.920;2023-06-19T09:35:40;4.28;;;3.22;;
62832;SDS011;48891;49.220;6.920;2023-06-19T09:38:06;4.35;;;3.10;;
62832;SDS011;48891;49.220;6.920;2023-06-19T09:40:31;3.90;;;3.13;;
62832;SDS011;48891;49.220;6.920;2023-06-19T09:42:56;4.45;;;3.22;;
62832;SDS011;48891;49.220;6.920;2023-06-19T09:45:22;4.82;;;3.17;;
62832;SDS011;48891;49.220;6.920;2023-06-19T09:47:48;3.90;;;3.05;;
62832;SDS011;48891;49.220;6.920;2023-06-19T09:50:15;3.95;;;2.90;;
62832;SDS011;48891;49.220;6.920;2023-06-19T09:52:41;4.22;;;3.20;;
62832;SDS011;48891;49.220;6.920;2023-06-19T09:55:06;4.15;;;2.90;;
62832;SDS011;48891;49.220;6.920;2023-06-19T09:57:32;4.43;;;3.25;;
62832;SDS011;48891;49.220;6.920;2023-06-19T09:59:57;3.92;;;2.90;;
62832;SDS011;48891;49.220;6.920;2023-06-19T10:02:24;4.85;;;2.97;;
62832;SDS011;48891;49.220;6.920;2023-06-19T10:04:51;4.10;;;2.83;;
62832;SDS011;48891;49.220;6.920;2023-06-19T10:07:17;4.45;;;2.90;;
62832;SDS011;48891;49.220;6.920;2023-06-19T10:09:54;4.55;;;3.17;;
62832;SDS011;48891;49.220;6.920;2023-06-19T10:12:19;4.30;;;3.10;;
62832;SDS011;48891;49.220;6.920;2023-06-19T10:14:46;4.32;;;3.25;;
62832;SDS011;48891;49.220;6.920;2023-06-19T10:17:11;4.00;;;3.10;;
62832;SDS011;48891;49.220;6.920;2023-06-19T10:19:36;4.32;;;3.03;;
62832;SDS011;48891;49.220;6.920;2023-06-19T10:22:02;3.47;;;2.70;;
62832;SDS011;48891;49.220;6.920;2023-06-19T10:24:28;4.00;;;3.00;;
62832;SDS011;48891;49.220;6.920;2023-06-19T10:26:58;5.88;;;3.25;;
62832;SDS011;48891;49.220;6.920;2023-06-19T10:29:23;3.50;;;2.70;;
62832;SDS011;48891;49.220;6.920;2023-06-19T10:31:49;4.15;;;3.10;;
62832;SDS011;48891;49.220;6.920;2023-06-19T10:34:14;4.82;;;3.03;;
62832;SDS011;48891;49.220;6.920;2023-06-19T10:36:39;4.43;;;2.78;;
62832;SDS011;48891;49.220;6.920;2023-06-19T10:39:04;4.32;;;3.35;;
62832;SDS011;48891;49.220;6.920;2023-06-19T10:41:29;4.07;;;2.90;;
62832;SDS011;48891;49.220;6.920;2023-06-19T10:44:04;4.60;;;3.22;;
62832;SDS011;48891;49.220;6.920;2023-06-19T10:46:31;4.40;;;2.78;;
62832;SDS011;48891;49.220;6.920;2023-06-19T10:48:57;4.47;;;3.25;;
62832;SDS011;48891;49.220;6.920;2023-06-19T10:51:22;3.78;;;2.80;;
62832;SDS011;48891;49.220;6.920;2023-06-19T10:53:48;3.88;;;2.50;;
62832;SDS011;48891;49.220;6.920;2023-06-19T10:56:14;4.15;;;3.20;;
62832;SDS011;48891;49.220;6.920;2023-06-19T10:58:39;4.10;;;2.85;;
62832;SDS011;48891;49.220;6.920;2023-06-19T11:01:04;4.15;;;2.90;;
62832;SDS011;48891;49.220;6.920;2023-06-19T11:03:29;3.83;;;2.95;;
62832;SDS011;48891;49.220;6.920;2023-06-19T11:05:56;3.78;;;2.70;;
62832;SDS011;48891;49.220;6.920;2023-06-19T11:08:22;3.80;;;2.88;;
62832;SDS011;48891;49.220;6.920;2023-06-19T11:10:47;4.87;;;3.17;;
62832;SDS011;48891;49.220;6.920;2023-06-19T11:13:13;4.47;;;3.08;;
62832;SDS011;48891;49.220;6.920;2023-06-19T11:15:38;4.60;;;3.30;;
62832;SDS011;48891;49.220;6.920;2023-06-19T11:18:04;3.90;;;2.72;;
62832;SDS011;48891;49.220;6.920;2023-06-19T11:20:29;3.83;;;2.65;;
62832;SDS011;48891;49.220;6.920;2023-06-19T11:22:58;4.60;;;3.05;;
62832;SDS011;48891;49.220;6.920;2023-06-19T11:25:23;4.72;;;3.25;;
62832;SDS011;48891;49.220;6.920;2023-06-19T11:27:49;3.75;;;2.80;;
62832;SDS011;48891;49.220;6.920;2023-06-19T11:30:14;4.55;;;3.10;;
62832;SDS011;48891;49.220;6.920;2023-06-19T11:32:39;4.50;;;3.10;;
62832;SDS011;48891;49.220;6.920;2023-06-19T11:35:05;3.90;;;2.60;;
62832;SDS011;48891;49.220;6.920;2023-06-19T11:37:30;4.22;;;3.08;;
62832;SDS011;48891;49.220;6.920;2023-06-19T11:39:55;4.35;;;3.22;;
62832;SDS011;48891;49.220;6.920;2023-06-19T11:42:21;3.92;;;2.90;;
62832;SDS011;48891;49.220;6.920;2023-06-19T11:44:53;3.60;;;2.60;;
62832;SDS011;48891;49.220;6.920;2023-06-19T11:47:18;4.07;;;3.13;;
62832;SDS011;48891;49.220;6.920;2023-06-19T11:49:43;3.53;;;2.73;;
62832;SDS011;48891;49.220;6.920;2023-06-19T11:52:12;3.75;;;2.78;;
62832;SDS011;48891;49.220;6.920;2023-06-19T11:54:37;4.28;;;2.92;;
62832;SDS011;48891;49.220;6.920;2023-06-19T11:57:02;4.55;;;3.10;;
62832;SDS011;48891;49.220;6.920;2023-06-19T11:59:27;4.10;;;3.17;;
62832;SDS011;48891;49.220;6.920;2023-06-19T12:01:52;4.38;;;2.95;;
62832;SDS011;48891;49.220;6.920;2023-06-19T12:04:17;4.30;;;3.03;;
62832;SDS011;48891;49.220;6.920;2023-06-19T12:06:42;4.25;;;2.92;;
62832;SDS011;48891;49.220;6.920;2023-06-19T12:09:07;3.55;;;2.70;;
62832;SDS011;48891;49.220;6.920;2023-06-19T12:11:33;4.28;;;2.72;;
62832;SDS011;48891;49.220;6.920;2023-06-19T12:13:58;5.15;;;3.22;;
62832;SDS011;48891;49.220;6.920;2023-06-19T12:16:23;4.30;;;2.97;;
62832;SDS011;48891;49.220;6.920;2023-06-19T12:18:48;3.78;;;2.63;;
62832;SDS011;48891;49.220;6.920;2023-06-19T12:21:13;4.05;;;2.63;;
62832;SDS011;48891;49.220;6.920;2023-06-19T12:23:38;3.63;;;2.72;;
62832;SDS011;48891;49.220;6.920;2023-06-19T12:26:03;4.60;;;3.00;;
62832;SDS011;48891;49.220;6.920;2023-06-19T12:28:28;3.88;;;3.00;;
62832;SDS011;48891;49.220;6.920;2023-06-19T12:30:53;5.63;;;3.15;;
62832;SDS011;48891;49.220;6.920;2023-06-19T12:33:19;4.82;;;3.17;;
62832;SDS011;48891;49.220;6.920;2023-06-19T12:35:44;3.90;;;2.80;;
62832;SDS011;48891;49.220;6.920;2023-06-19T12:38:10;4.18;;;2.83;;
62832;SDS011;48891;49.220;6.920;2023-06-19T12:40:36;4.32;;;3.10;;
62832;SDS011;48891;49.220;6.920;2023-06-19T12:43:01;4.20;;;3.08;;
62832;SDS011;48891;49.220;6.920;2023-06-19T12:45:26;3.70;;;2.90;;
62832;SDS011;48891;49.220;6.920;2023-06-19T12:47:51;4.82;;;3.20;;
62832;SDS011;48891;49.220;6.920;2023-06-19T12:50:16;4.63;;;2.63;;
62832;SDS011;48891;49.220;6.920;2023-06-19T12:52:42;4.13;;;2.65;;
62832;SDS011;48891;49.220;6.920;2023-06-19T12:55:07;3.25;;;2.63;;
62832;SDS011;48891;49.220;6.920;2023-06-19T12:57:32;5.57;;;3.20;;
62832;SDS011;48891;49.220;6.920;2023-06-19T12:59:57;3.97;;;2.93;;
62832;SDS011;48891;49.220;6.920;2023-06-19T13:02:22;4.35;;;2.85;;
62832;SDS011;48891;49.220;6.920;2023-06-19T13:04:47;5.00;;;2.85;;
62832;SDS011;48891;49.220;6.920;2023-06-19T13:07:12;3.78;;;3.00;;
62832;SDS011;48891;49.220;6.920;2023-06-19T13:09:38;4.63;;;3.40;;
62832;SDS011;48891;49.220;6.920;2023-06-19T13:12:03;3.80;;;2.65;;
62832;SDS011;48891;49.220;6.920;2023-06-19T13:14:28;4.07;;;3.08;;
62832;SDS011;48891;49.220;6.920;2023-06-19T13:16:53;3.80;;;3.00;;
62832;SDS011;48891;49.220;6.920;2023-06-19T13:19:18;3.80;;;2.60;;
62832;SDS011;48891;49.220;6.920;2023-06-19T13:21:43;4.18;;;2.83;;
62832;SDS011;48891;49.220;6.920;2023-06-19T13:24:09;4.65;;;3.30;;
62832;SDS011;48891;49.220;6.920;2023-06-19T13:26:34;3.78;;;2.72;;
62832;SDS011;48891;49.220;6.920;2023-06-19T13:28:59;4.18;;;3.25;;
62832;SDS011;48891;49.220;6.920;2023-06-19T13:31:24;3.90;;;3.17;;
62832;SDS011;48891;49.220;6.920;2023-06-19T13:33:49;4.03;;;3.20;;
62832;SDS011;48891;49.220;6.920;2023-06-19T13:36:14;3.78;;;2.80;;
62832;SDS011;48891;49.220;6.920;2023-06-19T13:38:40;4.72;;;2.72;;
62832;SDS011;48891;49.220;6.920;2023-06-19T13:41:05;3.83;;;2.83;;
62832;SDS011;48891;49.220;6.920;2023-06-19T13:43:31;4.63;;;3.00;;
62832;SDS011;48891;49.220;6.920;2023-06-19T13:45:56;5.38;;;3.10;;
62832;SDS011;48891;49.220;6.920;2023-06-19T13:48:21;4.03;;;2.97;;
62832;SDS011;48891;49.220;6.920;2023-06-19T13:50:46;4.22;;;3.13;;
62832;SDS011;48891;49.220;6.920;2023-06-19T13:53:12;4.10;;;2.90;;
62832;SDS011;48891;49.220;6.920;2023-06-19T13:55:37;4.25;;;3.10;;
62832;SDS011;48891;49.220;6.920;2023-06-19T13:58:02;3.97;;;3.00;;
62832;SDS011;48891;49.220;6.920;2023-06-19T14:00:27;4.53;;;3.05;;
62832;SDS011;48891;49.220;6.920;2023-06-19T14:02:52;4.03;;;3.10;;
62832;SDS011;48891;49.220;6.920;2023-06-19T14:05:17;4.50;;;3.10;;
62832;SDS011;48891;49.220;6.920;2023-06-19T14:07:42;5.07;;;3.00;;
62832;SDS011;48891;49.220;6.920;2023-06-19T14:10:08;3.90;;;3.08;;
62832;SDS011;48891;49.220;6.920;2023-06-19T14:12:33;4.10;;;2.97;;
62832;SDS011;48891;49.220;6.920;2023-06-19T14:14:58;4.33;;;2.90;;
62832;SDS011;48891;49.220;6.920;2023-06-19T14:17:23;4.10;;;3.20;;
62832;SDS011;48891;49.220;6.920;2023-06-19T14:19:49;4.10;;;3.10;;
62832;SDS011;48891;49.220;6.920;2023-06-19T14:22:14;3.95;;;3.00;;
62832;SDS011;48891;49.220;6.920;2023-06-19T14:24:39;4.60;;;3.22;;
62832;SDS011;48891;49.220;6.920;2023-06-19T14:27:04;4.05;;;2.90;;
62832;SDS011;48891;49.220;6.920;2023-06-19T14:29:29;3.83;;;2.95;;
62832;SDS011;48891;49.220;6.920;2023-06-19T14:31:54;4.70;;;3.25;;
62832;SDS011;48891;49.220;6.920;2023-06-19T14:34:20;4.57;;;3.30;;
62832;SDS011;48891;49.220;6.920;2023-06-19T14:36:45;4.75;;;3.33;;
62832;SDS011;48891;49.220;6.920;2023-06-19T14:39:11;3.67;;;2.72;;
62832;SDS011;48891;49.220;6.920;2023-06-19T14:41:36;4.07;;;3.30;;
62832;SDS011;48891;49.220;6.920;2023-06-19T14:44:01;3.72;;;2.80;;